createdAt,value
2022-09-01T00:00:53.236Z,21.75
2022-09-01T00:03:23.853Z,21.74
2022-09-01T00:05:55.147Z,21.74
2022-09-01T00:08:23.362Z,21.71
2022-09-01T00:10:50.568Z,21.68
2022-09-01T00:13:19.191Z,21.67
2022-09-01T00:15:46.424Z,21.69
2022-09-01T00:18:15.761Z,21.68
2022-09-01T00:20:42.969Z,21.68
2022-09-01T00:23:10.086Z,21.67
2022-09-01T00:25:37.284Z,21.68
2022-09-01T00:28:05.140Z,21.69
2022-09-01T00:30:33.682Z,21.66
2022-09-01T00:33:00.792Z,21.65
2022-09-01T00:35:28.106Z,21.61
2022-09-01T00:37:55.225Z,21.59
2022-09-01T00:40:24.759Z,21.60
2022-09-01T00:42:53.831Z,21.52
2022-09-01T00:45:22.332Z,21.48
2022-09-01T00:47:51.665Z,21.45
2022-09-01T00:50:20.133Z,21.42
2022-09-01T00:52:50.898Z,21.38
2022-09-01T00:55:21.841Z,21.36
2022-09-01T00:57:49.763Z,21.29
2022-09-01T01:00:18.896Z,21.26
2022-09-01T01:02:47.716Z,21.24
2022-09-01T01:05:17.021Z,21.24
2022-09-01T01:07:48.009Z,21.22
2022-09-01T01:10:17.790Z,21.20
2022-09-01T01:12:47.162Z,21.15
2022-09-01T01:15:15.376Z,21.11
2022-09-01T01:17:43.282Z,21.05
2022-09-01T01:20:33.277Z,21.01
2022-09-01T01:23:09.045Z,21.00
2022-09-01T01:25:42.116Z,20.97
2022-09-01T01:28:13.474Z,20.95
2022-09-01T01:30:43.418Z,20.94
2022-09-01T01:33:11.527Z,20.88
2022-09-01T01:35:40.053Z,20.82
2022-09-01T01:38:08.752Z,20.78
2022-09-01T01:40:38.478Z,20.75
2022-09-01T01:43:06.362Z,20.68
2022-09-01T01:45:34.376Z,20.64
2022-09-01T01:48:10.688Z,20.59
2022-09-01T01:50:39.867Z,20.50
2022-09-01T01:53:11.428Z,20.45
2022-09-01T01:55:43.790Z,20.42
2022-09-01T01:58:12.535Z,20.38
2022-09-01T02:00:44.490Z,20.35
2022-09-01T02:03:12.891Z,20.30
2022-09-01T02:05:40.368Z,20.24
2022-09-01T02:08:10.855Z,20.22
2022-09-01T02:10:42.406Z,20.21
2022-09-01T02:13:16.289Z,20.20
2022-09-01T02:15:46.054Z,20.17
2022-09-01T02:18:16.621Z,20.14
2022-09-01T02:20:44.498Z,20.10
2022-09-01T02:23:12.436Z,20.07
2022-09-01T02:26:05.205Z,20.07
2022-09-01T02:28:36.883Z,20.05
2022-09-01T02:31:05.799Z,20.02
2022-09-01T02:33:33.119Z,20.02
2022-09-01T02:36:04.029Z,20.01
2022-09-01T02:38:33.812Z,20.01
2022-09-01T02:41:03.972Z,19.93
2022-09-01T02:43:32.115Z,19.91
2022-09-01T02:46:02.059Z,19.92
2022-09-01T02:48:36.404Z,19.92
2022-09-01T02:51:05.910Z,19.84
2022-09-01T02:53:34.990Z,19.76
2022-09-01T02:56:09.532Z,19.69
2022-09-01T02:58:46.077Z,19.53
2022-09-01T03:01:15.587Z,19.48
2022-09-01T03:03:42.841Z,19.49
2022-09-01T03:06:10.225Z,19.49
2022-09-01T03:08:39.585Z,19.50
2022-09-01T03:11:12.983Z,19.50
2022-09-01T03:13:41.952Z,19.51
2022-09-01T03:16:10.443Z,19.50
2022-09-01T03:18:40.067Z,19.45
2022-09-01T03:21:08.575Z,19.42
2022-09-01T03:23:38.041Z,19.43
2022-09-01T03:26:05.601Z,19.46
2022-09-01T03:28:34.951Z,19.46
2022-09-01T03:31:02.108Z,19.48
2022-09-01T03:33:31.136Z,19.49
2022-09-01T03:35:58.833Z,19.49
2022-09-01T03:38:26.627Z,19.52
2022-09-01T03:41:02.163Z,19.56
2022-09-01T03:43:35.854Z,19.60
2022-09-01T03:46:06.114Z,19.64
2022-09-01T03:48:33.629Z,19.70
2022-09-01T03:51:03.893Z,19.74
2022-09-01T03:53:35.946Z,19.78
2022-09-01T03:56:05.492Z,19.82
2022-09-01T03:58:33.577Z,19.86
2022-09-01T04:01:03.015Z,19.87
2022-09-01T04:03:34.651Z,19.89
2022-09-01T04:06:03.690Z,19.94
2022-09-01T04:08:33.234Z,20.03
2022-09-01T04:11:03.929Z,20.12
2022-09-01T04:13:37.340Z,20.14
2022-09-01T04:16:10.806Z,20.21
2022-09-01T04:18:40.263Z,20.30
2022-09-01T04:21:10.554Z,20.35
2022-09-01T04:23:37.778Z,20.39
2022-09-01T04:26:11.321Z,20.48
2022-09-01T04:28:40.575Z,20.56
2022-09-01T04:31:10.330Z,20.65
2022-09-01T04:33:39.973Z,20.75
2022-09-01T04:36:19.661Z,20.80
2022-09-01T04:38:49.381Z,20.89
2022-09-01T04:41:17.856Z,20.95
2022-09-01T04:43:47.403Z,20.96
2022-09-01T04:46:14.799Z,21.05
2022-09-01T04:48:45.986Z,21.11
2022-09-01T04:51:15.562Z,21.07
2022-09-01T04:53:52.863Z,20.99
2022-09-01T04:56:23.001Z,20.94
2022-09-01T04:59:12.010Z,20.90
2022-09-01T05:01:43.644Z,21.00
2022-09-01T05:04:17.890Z,21.09
2022-09-01T05:06:49.306Z,21.17
2022-09-01T05:09:19.806Z,21.27
2022-09-01T05:12:11.038Z,21.35
2022-09-01T05:14:43.573Z,21.41
2022-09-01T05:17:12.120Z,21.41
2022-09-01T05:19:43.308Z,21.46
2022-09-01T05:22:11.305Z,21.57
2022-09-01T05:24:42.480Z,21.61
2022-09-01T05:27:12.394Z,21.69
2022-09-01T05:29:45.060Z,21.79
2022-09-01T05:32:12.714Z,21.78
2022-09-01T05:34:43.840Z,21.82
2022-09-01T05:37:13.215Z,21.85
2022-09-01T05:39:40.686Z,22.14
2022-09-01T05:42:08.558Z,22.57
2022-09-01T05:44:44.464Z,23.01
2022-09-01T05:47:20.823Z,23.56
2022-09-01T05:49:53.808Z,24.13
2022-09-01T05:52:25.647Z,24.63
2022-09-01T05:54:55.622Z,25.08
2022-09-01T05:57:34.321Z,25.36
2022-09-01T06:00:12.426Z,25.64
2022-09-01T06:02:43.170Z,26.03
2022-09-01T06:05:17.336Z,26.38
2022-09-01T06:07:47.115Z,26.69
2022-09-01T06:10:14.851Z,26.94
2022-09-01T06:12:43.433Z,27.04
2022-09-01T06:15:16.134Z,27.13
2022-09-01T06:17:47.881Z,27.25
2022-09-01T06:20:18.309Z,27.47
2022-09-01T06:22:47.755Z,27.54
2022-09-01T06:25:18.647Z,27.52
2022-09-01T06:27:48.316Z,27.77
2022-09-01T06:30:24.712Z,27.89
2022-09-01T06:33:09.368Z,28.00
2022-09-01T06:35:38.991Z,28.20
2022-09-01T06:38:08.719Z,28.41
2022-09-01T06:40:45.566Z,28.56
2022-09-01T06:43:16.618Z,28.62
2022-09-01T06:45:54.367Z,28.78
2022-09-01T06:48:23.609Z,28.77
2022-09-01T06:53:43.105Z,29.01
2022-09-01T06:56:13.537Z,29.15
2022-09-01T06:58:43.158Z,29.26
2022-09-01T07:01:15.586Z,29.52
2022-09-01T07:03:44.006Z,29.73
2022-09-01T07:09:47.521Z,30.00
2022-09-01T07:12:37.198Z,30.17
2022-09-01T07:17:55.608Z,30.58
2022-09-01T07:20:26.142Z,30.78
2022-09-01T07:23:04.144Z,30.65
2022-09-01T07:28:39.870Z,30.88
2022-09-01T07:39:51.412Z,31.65
2022-09-01T07:42:55.516Z,30.61
2022-09-01T07:43:12.823Z,31.72
2022-09-01T07:51:59.734Z,32.21
2022-09-01T07:54:27.674Z,32.23
2022-09-01T07:56:56.336Z,32.39
2022-09-01T07:59:27.931Z,32.56
2022-09-01T08:02:06.049Z,32.77
2022-09-01T08:04:34.370Z,32.89
2022-09-01T08:07:01.840Z,33.01
2022-09-01T08:09:37.982Z,32.99
2022-09-01T08:12:08.433Z,33.03
2022-09-01T08:15:12.681Z,33.33
2022-09-01T08:17:57.063Z,33.59
2022-09-01T08:20:26.560Z,33.60
2022-09-01T08:23:08.376Z,33.51
2022-09-01T08:25:38.181Z,33.49
2022-09-01T08:28:06.161Z,33.70
2022-09-01T08:30:37.889Z,33.73
2022-09-01T08:33:12.466Z,33.59
2022-09-01T08:35:46.159Z,33.51
2022-09-01T08:38:13.829Z,33.31
2022-09-01T08:40:51.532Z,33.51
2022-09-01T08:43:33.654Z,33.39
2022-09-01T08:46:11.445Z,33.27
2022-09-01T08:51:40.509Z,32.99
2022-09-01T08:54:22.610Z,33.06
2022-09-01T08:57:02.228Z,32.93
2022-09-01T08:59:49.981Z,33.02
2022-09-01T09:02:45.081Z,33.35
2022-09-01T09:05:28.196Z,33.39
2022-09-01T09:08:10.400Z,33.66
2022-09-01T09:10:43.758Z,33.61
2022-09-01T09:13:17.384Z,33.38
2022-09-01T09:15:51.580Z,33.51
2022-09-01T09:18:39.825Z,33.50
2022-09-01T09:21:15.428Z,33.67
2022-09-01T09:23:47.706Z,33.85
2022-09-01T09:26:16.622Z,33.95
2022-09-01T09:28:44.118Z,34.21
2022-09-01T09:31:27.104Z,34.33
2022-09-01T09:33:56.173Z,34.69
2022-09-01T09:36:30.722Z,34.74
2022-09-01T09:39:10.925Z,34.33
2022-09-01T09:41:39.833Z,34.03
2022-09-01T09:44:20.475Z,33.91
2022-09-01T09:46:48.938Z,34.10
2022-09-01T09:49:21.534Z,34.30
2022-09-01T09:52:16.445Z,34.56
2022-09-01T09:55:00.717Z,34.76
2022-09-01T09:57:30.396Z,34.95
2022-09-01T10:00:02.235Z,34.84
2022-09-01T10:02:42.312Z,35.00
2022-09-01T10:05:27.813Z,34.79
2022-09-01T10:07:56.952Z,34.62
2022-09-01T10:10:30.914Z,34.66
2022-09-01T10:12:59.196Z,34.59
2022-09-01T10:15:30.180Z,34.46
2022-09-01T10:21:00.444Z,34.28
2022-09-01T10:23:31.198Z,34.54
2022-09-01T10:26:06.337Z,34.96
2022-09-01T10:28:39.335Z,35.39
2022-09-01T10:31:09.118Z,35.54
2022-09-01T10:33:37.077Z,35.94
2022-09-01T10:36:07.978Z,36.28
2022-09-01T10:38:35.565Z,35.87
2022-09-01T10:41:14.040Z,35.47
2022-09-01T10:43:42.866Z,35.45
2022-09-01T10:46:50.610Z,35.41
2022-09-01T10:49:25.272Z,35.17
2022-09-01T10:52:03.642Z,35.19
2022-09-01T10:54:55.595Z,35.22
2022-09-01T10:57:44.714Z,34.56
2022-09-01T11:04:01.415Z,33.50
2022-09-01T11:09:41.549Z,33.42
2022-09-01T11:12:42.007Z,33.71
2022-09-01T11:15:35.613Z,34.18
2022-09-01T11:18:07.776Z,34.41
2022-09-01T11:20:38.376Z,34.66
2022-09-01T11:23:11.699Z,34.85
2022-09-01T11:25:43.869Z,34.56
2022-09-01T11:28:44.818Z,34.41
2022-09-01T11:31:21.833Z,34.53
2022-09-01T11:34:12.182Z,34.72
2022-09-01T11:36:51.940Z,34.90
2022-09-01T11:39:31.181Z,35.02
2022-09-01T11:42:04.435Z,35.28
2022-09-01T11:44:40.458Z,35.54
2022-09-01T11:47:16.613Z,35.68
2022-09-01T11:49:53.949Z,35.88
2022-09-01T11:52:23.567Z,35.70
2022-09-01T11:54:50.938Z,35.38
2022-09-01T11:57:29.705Z,35.62
2022-09-01T11:59:59.715Z,35.89
2022-09-01T12:02:31.980Z,35.88
2022-09-01T12:05:00.557Z,35.96
2022-09-01T12:07:41.626Z,36.14
2022-09-01T12:10:22.053Z,36.31
2022-09-01T12:12:59.685Z,36.29
2022-09-01T12:15:28.061Z,36.22
2022-09-01T12:18:10.496Z,36.36
2022-09-01T12:20:39.105Z,36.44
2022-09-01T12:23:18.516Z,36.47
2022-09-01T12:25:46.572Z,36.13
2022-09-01T12:28:16.809Z,35.99
2022-09-01T12:30:44.791Z,36.07
2022-09-01T12:33:29.819Z,36.08
2022-09-01T12:36:16.757Z,36.05
2022-09-01T12:38:43.995Z,35.98
2022-09-01T12:41:24.762Z,35.75
2022-09-01T12:43:54.605Z,35.46
2022-09-01T12:46:42.849Z,35.21
2022-09-01T12:49:20.410Z,35.00
2022-09-01T12:51:48.695Z,34.84
2022-09-01T12:54:16.454Z,34.68
2022-09-01T12:56:50.057Z,34.54
2022-09-01T12:59:36.418Z,34.50
2022-09-01T13:02:27.266Z,34.89
2022-09-01T13:04:54.789Z,35.30
2022-09-01T13:07:21.927Z,35.61
2022-09-01T13:09:49.186Z,35.68
2022-09-01T13:12:18.414Z,35.78
2022-09-01T13:14:47.359Z,35.70
2022-09-01T13:17:15.053Z,35.83
2022-09-01T13:19:42.673Z,35.98
2022-09-01T13:22:10.515Z,36.09
2022-09-01T13:24:39.635Z,35.87
2022-09-01T13:27:22.953Z,35.80
2022-09-01T13:29:52.428Z,35.80
2022-09-01T13:32:22.219Z,35.60
2022-09-01T13:34:51.839Z,35.01
2022-09-01T13:37:20.287Z,34.57
2022-09-01T13:39:48.670Z,34.22
2022-09-01T13:42:16.418Z,34.04
2022-09-01T13:44:44.251Z,33.95
2022-09-01T13:47:29.556Z,33.73
2022-09-01T13:50:14.049Z,33.60
2022-09-01T13:52:45.941Z,33.60
2022-09-01T13:55:25.618Z,33.49
2022-09-01T13:57:55.874Z,33.40
2022-09-01T14:00:25.262Z,33.33
2022-09-01T14:02:57.008Z,33.27
2022-09-01T14:05:26.234Z,33.13
2022-09-01T14:07:54.347Z,33.08
2022-09-01T14:10:22.858Z,33.03
2022-09-01T14:12:50.585Z,32.99
2022-09-01T14:15:23.730Z,33.08
2022-09-01T14:17:57.137Z,33.28
2022-09-01T14:20:26.246Z,33.20
2022-09-01T14:22:54.805Z,33.02
2022-09-01T14:25:22.205Z,32.86
2022-09-01T14:27:49.793Z,32.64
2022-09-01T14:30:20.156Z,32.52
2022-09-01T14:32:47.609Z,32.49
2022-09-01T14:35:17.885Z,32.43
2022-09-01T14:37:45.672Z,32.35
2022-09-01T14:40:17.679Z,32.29
2022-09-01T14:42:49.413Z,32.21
2022-09-01T14:45:18.701Z,32.13
2022-09-01T14:47:47.083Z,32.07
2022-09-01T14:50:19.932Z,32.01
2022-09-01T14:52:53.126Z,31.94
2022-09-01T14:55:21.158Z,31.88
2022-09-01T14:57:49.084Z,31.78
2022-09-01T15:00:17.432Z,31.66
2022-09-01T15:02:45.553Z,31.54
2022-09-01T15:05:13.929Z,31.44
2022-09-01T15:07:43.493Z,31.32
2022-09-01T15:10:16.121Z,31.18
2022-09-01T15:12:55.006Z,31.05
2022-09-01T15:15:23.112Z,30.86
2022-09-01T15:17:50.575Z,30.65
2022-09-01T15:20:36.308Z,30.48
2022-09-01T15:23:05.988Z,30.24
2022-09-01T15:25:33.183Z,30.07
2022-09-01T15:28:00.378Z,29.95
2022-09-01T15:30:28.601Z,29.82
2022-09-01T15:32:55.847Z,29.70
2022-09-01T15:35:23.766Z,29.60
2022-09-01T15:37:52.569Z,29.49
2022-09-01T15:40:23.152Z,29.42
2022-09-01T15:42:50.494Z,29.34
2022-09-01T15:45:21.478Z,29.28
2022-09-01T15:47:48.858Z,29.22
2022-09-01T15:50:21.771Z,29.18
2022-09-01T15:52:53.639Z,29.09
2022-09-01T15:55:24.297Z,29.02
2022-09-01T15:57:55.061Z,28.99
2022-09-01T16:00:24.688Z,28.95
2022-09-01T16:02:54.339Z,28.91
2022-09-01T16:05:22.230Z,28.83
2022-09-01T16:07:51.133Z,28.78
2022-09-01T16:10:18.838Z,28.58
2022-09-01T16:12:48.329Z,28.37
2022-09-01T16:15:18.993Z,28.34
2022-09-01T16:18:18.484Z,28.34
2022-09-01T16:20:57.304Z,28.34
2022-09-01T16:23:27.659Z,28.29
2022-09-01T16:25:59.229Z,28.26
2022-09-01T16:28:30.422Z,28.23
2022-09-01T16:31:03.251Z,28.18
2022-09-01T16:33:32.381Z,28.10
2022-09-01T16:36:08.934Z,27.95
2022-09-01T16:38:43.880Z,27.91
2022-09-01T16:41:18.177Z,27.84
2022-09-01T16:43:52.590Z,27.73
2022-09-01T16:46:22.862Z,27.65
2022-09-01T16:48:57.973Z,27.57
2022-09-01T16:51:31.550Z,27.48
2022-09-01T16:54:14.758Z,27.42
2022-09-01T16:56:54.130Z,27.37
2022-09-01T16:59:33.352Z,27.34
2022-09-01T17:02:15.914Z,27.35
2022-09-01T17:04:47.877Z,27.32
2022-09-01T17:07:20.358Z,27.28
2022-09-01T17:09:59.578Z,27.22
2022-09-01T17:12:35.756Z,27.20
2022-09-01T17:15:10.293Z,27.22
2022-09-01T17:17:41.934Z,27.17
2022-09-01T17:20:10.698Z,27.10
2022-09-01T17:22:38.873Z,27.08
2022-09-01T17:25:09.847Z,27.07
2022-09-01T17:27:45.603Z,27.02
2022-09-01T17:30:14.550Z,27.07
2022-09-01T17:32:55.593Z,26.97
2022-09-01T17:35:32.071Z,26.85
2022-09-01T17:38:05.342Z,26.66
2022-09-01T17:40:50.454Z,26.41
2022-09-01T17:43:26.276Z,26.38
2022-09-01T17:46:04.520Z,26.42
2022-09-01T17:48:40.537Z,26.44
2022-09-01T17:51:15.418Z,26.47
2022-09-01T17:53:52.952Z,26.39
2022-09-01T17:56:37.298Z,26.35
2022-09-01T17:59:14.710Z,26.35
2022-09-01T18:01:51.523Z,26.34
2022-09-01T18:04:44.538Z,26.33
2022-09-01T18:07:23.274Z,26.36
2022-09-01T18:09:55.038Z,26.36
2022-09-01T18:12:27.827Z,26.35
2022-09-01T18:15:01.578Z,26.34
2022-09-01T18:17:33.530Z,26.33
2022-09-01T18:20:07.942Z,26.29
2022-09-01T18:22:43.117Z,26.27
2022-09-01T18:25:17.423Z,26.24
2022-09-01T18:27:46.737Z,26.19
2022-09-01T18:30:26.217Z,26.15
2022-09-01T18:33:13.860Z,26.16
2022-09-01T18:35:46.976Z,26.15
2022-09-01T18:38:32.830Z,26.12
2022-09-01T18:41:09.661Z,26.10
2022-09-01T18:43:42.291Z,26.09
2022-09-01T18:46:16.846Z,26.04
2022-09-01T18:49:00.950Z,25.94
2022-09-01T18:51:41.048Z,25.86
2022-09-01T18:54:14.614Z,25.80
2022-09-01T18:56:47.538Z,25.73
2022-09-01T18:59:34.809Z,25.62
2022-09-01T19:02:19.152Z,25.58
2022-09-01T19:04:50.429Z,25.56
2022-09-01T19:07:29.906Z,25.54
2022-09-01T19:10:03.207Z,25.50
2022-09-01T19:12:37.073Z,25.46
2022-09-01T19:15:12.382Z,25.41
2022-09-01T19:17:56.590Z,25.46
2022-09-01T19:20:33.422Z,25.48
2022-09-01T19:23:06.601Z,25.50
2022-09-01T19:25:39.492Z,25.42
2022-09-01T19:28:15.881Z,25.37
2022-09-01T19:30:48.267Z,25.36
2022-09-01T19:33:22.466Z,25.36
2022-09-01T19:35:55.586Z,25.33
2022-09-01T19:38:27.851Z,25.34
2022-09-01T19:41:03.785Z,25.33
2022-09-01T19:43:36.326Z,25.34
2022-09-01T19:46:14.086Z,25.29
2022-09-01T19:48:49.248Z,25.27
2022-09-01T19:51:24.382Z,25.18
2022-09-01T19:53:58.482Z,25.18
2022-09-01T19:56:33.569Z,25.18
2022-09-01T19:59:13.025Z,25.13
2022-09-01T20:01:46.440Z,25.17
2022-09-01T20:04:25.178Z,25.15
2022-09-01T20:06:57.825Z,25.16
2022-09-01T20:09:34.749Z,25.07
2022-09-01T20:12:14.221Z,25.04
2022-09-01T20:14:54.890Z,25.01
2022-09-01T20:17:26.206Z,24.94
2022-09-01T20:20:00.687Z,24.86
2022-09-01T20:22:35.394Z,24.84
2022-09-01T20:25:08.494Z,24.78
2022-09-01T20:27:43.409Z,24.68
2022-09-01T20:30:12.662Z,24.65
2022-09-01T20:32:46.089Z,24.62
2022-09-01T20:35:15.649Z,24.60
2022-09-01T20:37:48.565Z,24.55
2022-09-01T20:40:20.008Z,24.51
2022-09-01T20:43:06.669Z,24.46
2022-09-01T20:45:33.949Z,24.44
2022-09-01T20:48:03.945Z,24.43
2022-09-01T20:50:42.643Z,24.44
2022-09-01T20:53:23.226Z,24.43
2022-09-01T20:55:56.907Z,24.42
2022-09-01T20:58:32.928Z,24.31
2022-09-01T21:01:18.152Z,24.21
2022-09-01T21:03:54.541Z,24.15
2022-09-01T21:06:43.608Z,24.13
2022-09-01T21:09:15.575Z,24.13
2022-09-01T21:11:53.032Z,24.11
2022-09-01T21:14:37.686Z,24.09
2022-09-01T21:17:13.451Z,24.04
2022-09-01T21:19:55.109Z,24.03
2022-09-01T21:22:22.693Z,24.00
2022-09-01T21:24:51.319Z,23.98
2022-09-01T21:27:22.755Z,23.96
2022-09-01T21:29:56.885Z,23.93
2022-09-01T21:32:24.547Z,23.94
2022-09-01T21:34:53.094Z,23.91
2022-09-01T21:37:22.499Z,23.92
2022-09-01T21:39:53.048Z,23.92
2022-09-01T21:42:22.576Z,23.92
2022-09-01T21:44:50.671Z,23.93
2022-09-01T21:47:21.849Z,23.96
2022-09-01T21:49:49.289Z,23.96
2022-09-01T21:52:16.574Z,23.97
2022-09-01T21:54:43.729Z,23.98
2022-09-01T21:57:12.248Z,24.00
2022-09-01T21:59:39.352Z,23.99
2022-09-01T22:02:09.261Z,23.99
2022-09-01T22:04:37.375Z,23.98
2022-09-01T22:07:06.589Z,23.98
2022-09-01T22:09:33.798Z,23.98
2022-09-01T22:12:00.943Z,23.97
2022-09-01T22:14:29.600Z,23.95
2022-09-01T22:17:00.040Z,23.89
2022-09-01T22:19:29.514Z,23.86
2022-09-01T22:21:56.624Z,23.86
2022-09-01T22:24:23.783Z,23.86
2022-09-01T22:26:50.997Z,23.84
2022-09-01T22:29:18.465Z,23.82
2022-09-01T22:31:47.063Z,23.85
2022-09-01T22:34:14.257Z,23.85
2022-09-01T22:36:44.650Z,23.81
2022-09-01T22:39:12.881Z,23.80
2022-09-01T22:41:41.137Z,23.69
2022-09-01T22:44:09.095Z,23.68
2022-09-01T22:46:38.652Z,23.70
2022-09-01T22:49:08.039Z,23.68
2022-09-01T22:51:37.550Z,23.67
2022-09-01T22:54:05.043Z,23.59
2022-09-01T22:56:35.923Z,23.59
2022-09-01T22:59:06.888Z,23.60
2022-09-01T23:01:37.062Z,23.61
2022-09-01T23:04:06.446Z,23.58
2022-09-01T23:06:38.431Z,23.56
2022-09-01T23:09:08.705Z,23.60
2022-09-01T23:11:35.954Z,23.57
2022-09-01T23:14:04.348Z,23.57
2022-09-01T23:16:31.855Z,23.59
2022-09-01T23:18:59.862Z,23.57
2022-09-01T23:21:29.673Z,23.53
2022-09-01T23:23:59.098Z,23.46
2022-09-01T23:26:26.810Z,23.47
2022-09-01T23:28:53.997Z,23.44
2022-09-01T23:31:24.668Z,23.45
2022-09-01T23:33:52.443Z,23.48
2022-09-01T23:36:21.850Z,23.49
2022-09-01T23:38:49.658Z,23.49
2022-09-01T23:41:23.197Z,23.48
2022-09-01T23:43:50.802Z,23.46
2022-09-01T23:46:19.392Z,23.46
2022-09-01T23:48:46.690Z,23.45
2022-09-01T23:51:14.186Z,23.45
2022-09-01T23:53:41.613Z,23.41
2022-09-01T23:56:11.975Z,23.44
2022-09-01T23:58:42.505Z,23.43
